createdAt,value
2022-11-18T00:00:27.746Z,9.30
2022-11-18T00:02:56.730Z,9.20
2022-11-18T00:05:25.835Z,9.30
2022-11-18T00:07:54.837Z,9.20
2022-11-18T00:10:25.258Z,9.20
2022-11-18T00:13:11.533Z,9.20
2022-11-18T00:15:40.525Z,9.20
2022-11-18T00:18:09.840Z,9.20
2022-11-18T00:20:39.391Z,9.10
2022-11-18T00:23:08.467Z,9.20
2022-11-18T00:25:38.932Z,9.10
2022-11-18T00:28:08.062Z,9.10
2022-11-18T00:30:37.084Z,9.10
2022-11-18T00:33:06.175Z,9.10
2022-11-18T00:35:35.265Z,9.10
2022-11-18T00:38:04.237Z,9.10
2022-11-18T00:40:33.242Z,9.10
2022-11-18T00:43:02.631Z,9.10
2022-11-18T00:45:31.634Z,9.10
2022-11-18T00:48:00.689Z,9.00
2022-11-18T00:50:29.852Z,9.10
2022-11-18T00:52:58.919Z,9.10
2022-11-18T00:55:27.893Z,9.00
2022-11-18T00:57:56.982Z,9.00
2022-11-18T01:00:27.381Z,9.10
2022-11-18T01:02:56.454Z,9.00
2022-11-18T01:05:25.443Z,9.00
2022-11-18T01:07:54.565Z,9.00
2022-11-18T01:10:23.590Z,9.00
2022-11-18T01:13:09.938Z,9.00
2022-11-18T01:15:42.111Z,9.00
2022-11-18T01:18:11.207Z,9.00
2022-11-18T01:20:40.408Z,9.00
2022-11-18T01:23:09.485Z,8.90
2022-11-18T01:25:39.910Z,9.00
2022-11-18T01:28:09.178Z,9.00
2022-11-18T01:30:41.169Z,9.00
2022-11-18T01:33:10.695Z,9.00
2022-11-18T01:35:41.879Z,9.00
2022-11-18T01:38:12.431Z,9.00
2022-11-18T01:40:41.875Z,9.00
2022-11-18T01:43:15.848Z,9.00
2022-11-18T01:45:47.964Z,9.10
2022-11-18T01:48:20.625Z,9.10
2022-11-18T01:50:54.336Z,9.10
2022-11-18T01:53:27.386Z,9.10
2022-11-18T01:55:59.386Z,9.20
2022-11-18T01:58:34.561Z,9.20
2022-11-18T02:01:07.913Z,9.20
2022-11-18T02:03:38.847Z,9.20
2022-11-18T02:06:09.849Z,9.20
2022-11-18T02:08:40.291Z,9.20
2022-11-18T02:11:33.378Z,9.20
2022-11-18T02:14:05.735Z,9.30
2022-11-18T02:16:52.069Z,9.30
2022-11-18T02:19:42.526Z,9.30
2022-11-18T02:22:26.902Z,9.30
2022-11-18T02:25:06.104Z,9.40
2022-11-18T02:28:21.052Z,9.40
2022-11-18T02:30:59.334Z,9.40
2022-11-18T02:33:34.643Z,9.40
2022-11-18T02:36:09.112Z,9.40
2022-11-18T02:38:44.885Z,9.40
2022-11-18T02:41:17.545Z,9.40
2022-11-18T02:43:50.062Z,9.40
2022-11-18T02:46:26.594Z,9.40
2022-11-18T02:48:56.847Z,9.40
2022-11-18T02:51:29.728Z,9.50
2022-11-18T02:54:03.101Z,9.40
2022-11-18T02:56:34.085Z,9.50
2022-11-18T02:59:03.603Z,9.50
2022-11-18T03:01:37.069Z,9.50
2022-11-18T03:04:07.067Z,9.50
2022-11-18T03:06:40.039Z,9.50
2022-11-18T03:09:15.677Z,9.60
2022-11-18T03:11:52.776Z,9.60
2022-11-18T03:14:29.166Z,9.50
2022-11-18T03:17:01.778Z,9.50
2022-11-18T03:19:39.889Z,9.50
2022-11-18T03:22:14.859Z,9.50
2022-11-18T03:24:46.889Z,9.50
2022-11-18T03:27:21.963Z,9.50
2022-11-18T03:29:55.642Z,9.50
2022-11-18T03:32:28.554Z,9.50
2022-11-18T03:35:02.376Z,9.50
2022-11-18T03:37:34.457Z,9.50
2022-11-18T03:40:08.246Z,9.50
2022-11-18T03:42:41.278Z,9.50
2022-11-18T03:45:16.092Z,9.50
2022-11-18T03:47:51.284Z,9.50
2022-11-18T03:50:24.408Z,9.50
2022-11-18T03:52:54.725Z,9.50
2022-11-18T03:55:27.294Z,9.50
2022-11-18T03:58:01.816Z,9.50
2022-11-18T04:00:34.283Z,9.50
2022-11-18T04:03:05.328Z,9.50
2022-11-18T04:05:37.987Z,9.50
2022-11-18T04:08:12.015Z,9.50
2022-11-18T04:10:46.997Z,9.60
2022-11-18T04:13:21.421Z,9.60
2022-11-18T04:15:50.662Z,9.60
2022-11-18T04:18:21.102Z,9.60
2022-11-18T04:20:50.170Z,9.50
2022-11-18T04:23:19.482Z,9.50
2022-11-18T04:25:48.493Z,9.50
2022-11-18T04:28:17.498Z,9.50
2022-11-18T04:30:46.490Z,9.50
2022-11-18T04:33:15.470Z,9.50
2022-11-18T04:35:48.165Z,9.50
2022-11-18T04:38:21.793Z,9.50
2022-11-18T04:40:51.135Z,9.50
2022-11-18T04:43:20.293Z,9.50
2022-11-18T04:45:49.264Z,9.50
2022-11-18T04:48:19.339Z,9.50
2022-11-18T04:50:49.777Z,9.50
2022-11-18T04:53:18.778Z,9.50
2022-11-18T04:55:47.767Z,9.50
2022-11-18T04:58:16.742Z,9.40
2022-11-18T05:00:45.705Z,9.40
2022-11-18T05:03:16.404Z,9.40
2022-11-18T05:05:45.434Z,9.40
2022-11-18T05:08:15.835Z,9.40
2022-11-18T05:10:44.848Z,9.40
2022-11-18T05:13:13.586Z,9.40
2022-11-18T05:15:42.577Z,9.40
2022-11-18T05:18:12.346Z,9.40
2022-11-18T05:20:41.833Z,9.40
2022-11-18T05:23:10.993Z,9.40
2022-11-18T05:25:43.970Z,9.40
2022-11-18T05:28:13.028Z,9.40
2022-11-18T05:30:42.123Z,9.40
2022-11-18T05:33:11.196Z,9.40
2022-11-18T05:35:40.263Z,9.40
2022-11-18T05:38:09.236Z,9.40
2022-11-18T05:40:38.229Z,9.40
2022-11-18T05:43:11.494Z,9.40
2022-11-18T05:45:40.603Z,9.40
2022-11-18T05:48:09.687Z,9.40
2022-11-18T05:50:39.803Z,9.30
2022-11-18T05:53:08.898Z,9.30
2022-11-18T05:55:44.089Z,9.30
2022-11-18T05:58:14.505Z,9.20
2022-11-18T06:00:44.201Z,9.20
2022-11-18T06:03:18.773Z,9.20
2022-11-18T06:05:48.267Z,9.20
2022-11-18T06:08:20.777Z,9.20
2022-11-18T06:10:51.485Z,9.20
2022-11-18T06:13:26.304Z,9.10
2022-11-18T06:15:55.337Z,9.10
2022-11-18T06:18:27.764Z,9.10
2022-11-18T06:21:00.859Z,9.10
2022-11-18T06:23:32.297Z,9.10
2022-11-18T06:26:01.578Z,9.10
2022-11-18T06:28:32.229Z,9.10
2022-11-18T06:31:01.259Z,9.10
2022-11-18T06:33:30.223Z,9.10
2022-11-18T06:35:59.265Z,9.10
2022-11-18T06:38:28.289Z,9.10
2022-11-18T06:41:01.394Z,9.10
2022-11-18T06:43:41.817Z,9.10
2022-11-18T06:46:31.011Z,9.10
2022-11-18T06:49:00.461Z,9.10
2022-11-18T06:51:29.896Z,9.10
2022-11-18T06:53:58.984Z,9.10
2022-11-18T06:56:28.093Z,9.10
2022-11-18T06:59:00.298Z,9.10
2022-11-18T07:01:31.204Z,9.10
2022-11-18T07:04:01.290Z,9.10
2022-11-18T07:06:31.631Z,9.10
2022-11-18T07:09:02.312Z,9.10
2022-11-18T07:11:31.364Z,9.00
2022-11-18T07:14:02.242Z,9.00
2022-11-18T07:16:31.494Z,9.00
2022-11-18T07:19:00.624Z,9.00
2022-11-18T07:21:30.462Z,9.00
2022-11-18T07:23:59.490Z,9.00
2022-11-18T07:26:28.705Z,9.00
2022-11-18T07:28:57.704Z,9.00
2022-11-18T07:31:28.260Z,9.00
2022-11-18T07:33:57.526Z,8.90
2022-11-18T07:36:33.965Z,8.90
2022-11-18T07:39:06.190Z,8.90
2022-11-18T07:41:36.233Z,8.90
2022-11-18T07:44:06.580Z,8.90
2022-11-18T07:46:38.487Z,8.90
2022-11-18T07:49:09.831Z,8.80
2022-11-18T07:51:40.838Z,8.90
2022-11-18T07:54:12.031Z,8.90
2022-11-18T07:56:41.495Z,8.90
2022-11-18T07:59:10.747Z,8.90
2022-11-18T08:01:41.380Z,8.90
2022-11-18T08:04:12.509Z,8.90
2022-11-18T08:06:41.993Z,8.90
2022-11-18T08:09:11.366Z,8.90
2022-11-18T08:11:42.033Z,8.90
2022-11-18T08:14:11.008Z,8.90
2022-11-18T08:16:41.345Z,8.90
2022-11-18T08:19:10.783Z,8.90
2022-11-18T08:21:40.165Z,8.90
2022-11-18T08:24:12.671Z,8.90
2022-11-18T08:26:41.852Z,8.90
2022-11-18T08:29:10.926Z,8.90
2022-11-18T08:31:42.096Z,8.90
2022-11-18T08:34:12.259Z,8.90
2022-11-18T08:36:41.354Z,8.90
2022-11-18T08:39:12.872Z,8.90
2022-11-18T08:41:43.521Z,9.00
2022-11-18T08:44:15.122Z,9.00
2022-11-18T08:46:47.161Z,9.00
2022-11-18T08:49:16.675Z,9.00
2022-11-18T08:51:45.890Z,9.00
2022-11-18T08:54:14.885Z,9.00
2022-11-18T08:56:43.997Z,9.00
2022-11-18T08:59:13.322Z,9.10
2022-11-18T09:01:43.693Z,9.10
2022-11-18T09:04:14.338Z,9.20
2022-11-18T09:06:43.381Z,9.20
2022-11-18T09:09:12.411Z,9.30
2022-11-18T09:11:42.317Z,9.30
2022-11-18T09:17:03.038Z,9.50
2022-11-18T09:19:47.207Z,9.50
2022-11-18T09:22:17.037Z,9.60
2022-11-18T09:24:46.033Z,9.60
2022-11-18T09:27:17.300Z,9.70
2022-11-18T09:29:46.804Z,9.70
2022-11-18T09:32:15.905Z,9.80
2022-11-18T09:34:46.285Z,9.80
2022-11-18T09:37:15.403Z,9.90
2022-11-18T09:39:44.409Z,9.90
2022-11-18T09:42:25.998Z,9.90
2022-11-18T09:45:14.633Z,10.00
2022-11-18T09:47:46.188Z,10.00
2022-11-18T09:50:48.039Z,10.10
2022-11-18T09:53:17.098Z,10.10
2022-11-18T09:55:47.049Z,10.10
2022-11-18T09:58:22.267Z,10.10
2022-11-18T10:00:51.305Z,10.20
2022-11-18T10:03:28.123Z,10.20
2022-11-18T10:06:05.031Z,10.20
2022-11-18T10:08:39.426Z,10.20
2022-11-18T10:11:15.082Z,10.20
2022-11-18T10:13:55.893Z,10.30
2022-11-18T10:16:37.377Z,10.30
2022-11-18T10:19:18.985Z,10.40
2022-11-18T10:22:00.160Z,10.40
2022-11-18T10:24:31.955Z,10.50
2022-11-18T10:27:02.653Z,10.50
2022-11-18T10:29:31.777Z,10.60
2022-11-18T10:32:07.910Z,10.60
2022-11-18T10:34:48.183Z,10.60
2022-11-18T10:37:45.451Z,10.60
2022-11-18T10:40:25.774Z,10.70
2022-11-18T10:42:54.921Z,10.70
2022-11-18T10:45:31.134Z,10.70
2022-11-18T10:48:03.369Z,10.70
2022-11-18T10:50:40.059Z,10.70
2022-11-18T10:53:32.928Z,10.80
2022-11-18T10:56:03.968Z,10.80
2022-11-18T10:58:37.589Z,10.80
2022-11-18T11:01:09.247Z,10.90
2022-11-18T11:03:40.130Z,10.80
2022-11-18T11:06:31.848Z,10.90
2022-11-18T11:09:08.540Z,10.90
2022-11-18T11:11:40.277Z,10.90
2022-11-18T11:14:27.919Z,10.90
2022-11-18T11:17:05.155Z,10.90
2022-11-18T11:19:53.278Z,10.90
2022-11-18T11:22:22.368Z,11.00
2022-11-18T11:24:52.898Z,11.00
2022-11-18T11:30:45.236Z,11.10
2022-11-18T11:33:31.164Z,11.10
2022-11-18T11:36:24.933Z,11.10
2022-11-18T11:39:04.629Z,11.10
2022-11-18T11:41:46.385Z,11.10
2022-11-18T11:44:33.251Z,11.10
2022-11-18T11:47:36.238Z,11.20
2022-11-18T11:50:14.566Z,11.20
2022-11-18T11:52:54.857Z,11.20
2022-11-18T11:55:32.292Z,11.20
2022-11-18T11:58:14.704Z,11.10
2022-11-18T12:00:50.758Z,11.20
2022-11-18T12:03:51.722Z,11.20
2022-11-18T12:06:21.810Z,11.20
2022-11-18T12:09:00.538Z,11.20
2022-11-18T12:11:34.956Z,11.20
2022-11-18T12:14:11.924Z,11.20
2022-11-18T12:16:47.115Z,11.20
2022-11-18T12:19:19.431Z,11.20
2022-11-18T12:21:58.369Z,11.20
2022-11-18T12:24:32.726Z,11.20
2022-11-18T12:27:03.822Z,11.10
2022-11-18T12:29:45.291Z,11.20
2022-11-18T12:32:42.824Z,11.20
2022-11-18T12:35:28.562Z,11.20
2022-11-18T12:38:03.013Z,11.30
2022-11-18T12:40:42.490Z,11.30
2022-11-18T12:44:04.307Z,11.30
2022-11-18T12:46:55.674Z,11.20
2022-11-18T12:50:10.361Z,11.20
2022-11-18T12:52:56.268Z,11.30
2022-11-18T12:55:34.831Z,11.20
2022-11-18T12:58:03.842Z,11.20
2022-11-18T13:00:52.744Z,11.20
2022-11-18T13:03:30.552Z,11.20
2022-11-18T13:06:15.874Z,11.20
2022-11-18T13:08:44.923Z,11.20
2022-11-18T13:11:35.686Z,11.20
2022-11-18T13:14:24.294Z,11.20
2022-11-18T13:17:10.574Z,11.20
2022-11-18T13:19:41.047Z,11.20
2022-11-18T13:22:35.967Z,11.20
2022-11-18T13:25:05.279Z,11.20
2022-11-18T13:27:45.780Z,11.20
2022-11-18T13:30:16.587Z,11.20
2022-11-18T13:32:47.306Z,11.20
2022-11-18T13:35:20.424Z,11.20
2022-11-18T13:37:52.482Z,11.20
2022-11-18T13:40:24.122Z,11.30
2022-11-18T13:42:53.260Z,11.30
2022-11-18T13:45:27.110Z,11.20
2022-11-18T13:48:01.435Z,11.20
2022-11-18T13:50:34.477Z,11.20
2022-11-18T13:53:13.784Z,11.20
2022-11-18T13:55:48.143Z,11.20
2022-11-18T13:58:40.232Z,11.20
2022-11-18T14:01:17.915Z,11.20
2022-11-18T14:03:51.900Z,11.20
2022-11-18T14:06:32.806Z,11.20
2022-11-18T14:09:07.737Z,11.20
2022-11-18T14:11:42.431Z,11.10
2022-11-18T14:14:22.412Z,11.20
2022-11-18T14:16:53.408Z,11.10
2022-11-18T14:20:17.694Z,11.10
2022-11-18T14:22:32.247Z,11.10
2022-11-18T14:25:03.984Z,11.10
2022-11-18T14:27:40.775Z,11.10
2022-11-18T14:30:34.394Z,11.10
2022-11-18T14:33:20.592Z,11.10
2022-11-18T14:35:53.078Z,11.10
2022-11-18T14:41:41.076Z,11.00
2022-11-18T14:44:13.861Z,11.00
2022-11-18T14:46:45.838Z,11.00
2022-11-18T14:49:19.725Z,11.00
2022-11-18T14:51:49.246Z,10.90
2022-11-18T14:54:26.514Z,10.90
2022-11-18T14:57:02.399Z,10.90
2022-11-18T14:59:34.892Z,10.90
2022-11-18T15:02:03.951Z,10.90
2022-11-18T15:04:33.080Z,10.90
2022-11-18T15:07:02.191Z,10.90
2022-11-18T15:09:32.624Z,10.80
2022-11-18T15:12:03.664Z,10.80
2022-11-18T15:14:32.678Z,10.80
2022-11-18T15:17:01.803Z,10.80
2022-11-18T15:19:32.313Z,10.80
2022-11-18T15:22:01.383Z,10.80
2022-11-18T15:24:30.391Z,10.80
2022-11-18T15:27:05.213Z,10.70
2022-11-18T15:29:34.803Z,10.70
2022-11-18T15:32:05.314Z,10.70
2022-11-18T15:34:34.755Z,10.70
2022-11-18T15:37:04.654Z,10.70
2022-11-18T15:39:33.783Z,10.60
2022-11-18T15:42:04.253Z,10.60
2022-11-18T15:44:33.396Z,10.60
2022-11-18T15:47:02.504Z,10.50
2022-11-18T15:49:31.727Z,10.50
2022-11-18T15:52:00.857Z,10.50
2022-11-18T15:54:29.905Z,10.50
2022-11-18T15:56:58.891Z,10.40
2022-11-18T15:59:29.364Z,10.40
2022-11-18T16:01:58.525Z,10.30
2022-11-18T16:04:27.725Z,10.40
2022-11-18T16:06:57.991Z,10.30
2022-11-18T16:09:47.500Z,10.30
2022-11-18T16:12:34.752Z,10.20
2022-11-18T16:15:25.219Z,10.20
2022-11-18T16:17:54.290Z,10.20
2022-11-18T16:20:26.041Z,10.10
2022-11-18T16:22:56.320Z,10.20
2022-11-18T16:25:25.610Z,10.10
2022-11-18T16:27:55.197Z,10.10
2022-11-18T16:30:43.559Z,10.00
2022-11-18T16:33:12.641Z,10.00
2022-11-18T16:35:48.224Z,10.00
2022-11-18T16:38:17.292Z,10.00
2022-11-18T16:40:46.653Z,10.00
2022-11-18T16:43:15.669Z,10.00
2022-11-18T16:45:53.847Z,10.00
2022-11-18T16:48:23.871Z,9.90
2022-11-18T16:51:18.821Z,9.90
2022-11-18T16:53:52.992Z,9.90
2022-11-18T16:56:22.811Z,9.90
2022-11-18T16:58:52.137Z,9.90
2022-11-18T17:01:28.968Z,9.90
2022-11-18T17:04:00.466Z,9.90
2022-11-18T17:06:31.355Z,9.80
2022-11-18T17:09:00.839Z,9.80
2022-11-18T17:11:29.826Z,9.80
2022-11-18T17:13:58.946Z,9.80
2022-11-18T17:16:29.453Z,9.80
2022-11-18T17:18:59.935Z,9.80
2022-11-18T17:21:30.872Z,9.70
2022-11-18T17:24:00.003Z,9.70
2022-11-18T17:26:29.762Z,9.70
2022-11-18T17:28:59.051Z,9.80
2022-11-18T17:31:29.515Z,9.70
2022-11-18T17:33:58.797Z,9.70
2022-11-18T17:36:29.870Z,9.70
2022-11-18T17:39:01.166Z,9.70
2022-11-18T17:41:47.536Z,9.60
2022-11-18T17:44:18.203Z,9.70
2022-11-18T17:46:49.447Z,9.60
2022-11-18T17:49:19.475Z,9.60
2022-11-18T17:51:48.544Z,9.60
2022-11-18T17:54:18.382Z,9.60
2022-11-18T17:56:48.254Z,9.60
2022-11-18T17:59:17.590Z,9.60
2022-11-18T18:01:50.770Z,9.50
2022-11-18T18:04:23.519Z,9.60
2022-11-18T18:06:53.299Z,9.60
2022-11-18T18:09:30.056Z,9.50
2022-11-18T18:12:00.837Z,9.50
2022-11-18T18:14:28.964Z,9.50
2022-11-18T18:17:00.313Z,9.50
2022-11-18T18:19:29.053Z,9.50
2022-11-18T18:21:57.905Z,9.50
2022-11-18T18:24:26.873Z,9.50
2022-11-18T18:26:56.486Z,9.40
2022-11-18T18:29:26.017Z,9.40
2022-11-18T18:31:54.984Z,9.40
2022-11-18T18:34:25.409Z,9.40
2022-11-18T18:36:54.450Z,9.40
2022-11-18T18:39:23.538Z,9.40
2022-11-18T18:41:52.527Z,9.40
2022-11-18T18:44:21.935Z,9.40
2022-11-18T18:46:50.279Z,9.40
2022-11-18T18:49:22.166Z,9.30
2022-11-18T18:51:55.636Z,9.30
2022-11-18T18:54:24.643Z,9.30
2022-11-18T18:56:53.651Z,9.30
2022-11-18T18:59:22.764Z,9.30
2022-11-18T19:01:52.073Z,9.30
2022-11-18T19:04:21.492Z,9.20
2022-11-18T19:06:59.038Z,9.30
2022-11-18T19:09:29.464Z,9.20
2022-11-18T19:12:15.768Z,9.20
2022-11-18T19:14:44.825Z,9.20
2022-11-18T19:17:14.176Z,9.20
2022-11-18T19:20:01.391Z,9.20
2022-11-18T19:22:35.158Z,9.20
2022-11-18T19:25:04.442Z,9.20
2022-11-18T19:27:33.968Z,9.20
2022-11-18T19:30:03.258Z,9.20
2022-11-18T19:32:32.284Z,9.20
2022-11-18T19:35:01.325Z,9.10
2022-11-18T19:37:32.124Z,9.10
2022-11-18T19:40:07.113Z,9.10
2022-11-18T19:42:40.787Z,9.10
2022-11-18T19:45:10.894Z,9.10
2022-11-18T19:47:39.955Z,9.10
2022-11-18T19:50:09.656Z,9.10
2022-11-18T19:52:40.052Z,9.10
2022-11-18T19:55:09.806Z,9.10
2022-11-18T19:57:38.829Z,9.10
2022-11-18T20:00:09.119Z,9.10
2022-11-18T20:02:42.501Z,9.10
2022-11-18T20:05:28.823Z,9.10
2022-11-18T20:07:59.172Z,9.10
2022-11-18T20:10:28.351Z,9.00
2022-11-18T20:12:57.813Z,9.00
2022-11-18T20:15:26.877Z,9.00
2022-11-18T20:17:55.883Z,9.00
2022-11-18T20:20:24.891Z,9.00
2022-11-18T20:22:54.865Z,9.00
2022-11-18T20:25:25.246Z,9.00
2022-11-18T20:27:54.542Z,9.00
2022-11-18T20:30:23.553Z,9.00
2022-11-18T20:32:52.566Z,8.90
2022-11-18T20:35:21.638Z,8.90
2022-11-18T20:37:50.585Z,8.90
2022-11-18T20:40:19.584Z,8.90
2022-11-18T20:43:07.455Z,8.90
2022-11-18T20:45:36.419Z,9.00
2022-11-18T20:48:06.035Z,8.90
2022-11-18T20:50:38.018Z,8.90
2022-11-18T20:53:07.373Z,8.90
2022-11-18T20:55:39.751Z,8.90
2022-11-18T20:58:10.180Z,8.90
2022-11-18T21:00:39.185Z,8.90
2022-11-18T21:03:08.279Z,8.90
2022-11-18T21:05:37.269Z,8.80
2022-11-18T21:08:09.532Z,8.80
2022-11-18T21:10:38.500Z,8.80
2022-11-18T21:13:24.734Z,8.80
2022-11-18T21:15:55.191Z,8.80
2022-11-18T21:18:24.185Z,8.80
2022-11-18T21:21:15.810Z,8.80
2022-11-18T21:23:46.754Z,8.80
2022-11-18T21:26:15.746Z,8.80
2022-11-18T21:28:44.782Z,8.80
2022-11-18T21:31:19.358Z,8.80
2022-11-18T21:33:51.120Z,8.80
2022-11-18T21:36:21.556Z,8.80
2022-11-18T21:38:50.790Z,8.80
2022-11-18T21:41:19.876Z,8.70
2022-11-18T21:44:06.273Z,8.70
2022-11-18T21:46:38.218Z,8.70
2022-11-18T21:49:07.832Z,8.70
2022-11-18T21:51:37.511Z,8.70
2022-11-18T21:54:07.427Z,8.70
2022-11-18T21:56:36.499Z,8.70
2022-11-18T21:59:06.165Z,8.70
2022-11-18T22:01:36.700Z,8.70
2022-11-18T22:04:06.863Z,8.70
2022-11-18T22:06:36.150Z,8.70
2022-11-18T22:09:06.142Z,8.70
2022-11-18T22:11:35.139Z,8.70
2022-11-18T22:14:04.569Z,8.70
2022-11-18T22:16:33.542Z,8.60
2022-11-18T22:19:08.196Z,8.60
2022-11-18T22:21:37.505Z,8.60
2022-11-18T22:24:07.064Z,8.60
2022-11-18T22:26:36.052Z,8.60
2022-11-18T22:29:05.079Z,8.60
2022-11-18T22:31:35.057Z,8.60
2022-11-18T22:34:05.467Z,8.60
2022-11-18T22:36:34.416Z,8.60
2022-11-18T22:39:03.656Z,8.60
2022-11-18T22:41:49.883Z,8.60
2022-11-18T22:44:18.938Z,8.60
2022-11-18T22:46:47.930Z,8.60
2022-11-18T22:49:18.848Z,8.60
2022-11-18T22:51:48.115Z,8.50
2022-11-18T22:57:06.147Z,8.50
2022-11-18T22:59:35.208Z,8.50
2022-11-18T23:02:04.224Z,8.50
2022-11-18T23:04:34.645Z,8.50
2022-11-18T23:07:03.829Z,8.50
2022-11-18T23:09:33.087Z,8.50
2022-11-18T23:12:19.256Z,8.50
2022-11-18T23:14:48.435Z,8.40
2022-11-18T23:17:17.532Z,8.50
2022-11-18T23:19:47.942Z,8.40
2022-11-18T23:22:17.155Z,8.40
2022-11-18T23:24:46.195Z,8.40
2022-11-18T23:27:15.201Z,8.40
2022-11-18T23:29:44.259Z,8.40
2022-11-18T23:32:13.277Z,8.40
2022-11-18T23:34:42.253Z,8.40
2022-11-18T23:37:12.648Z,8.40
2022-11-18T23:39:41.668Z,8.40
2022-11-18T23:42:11.830Z,8.40
2022-11-18T23:44:46.718Z,8.40
2022-11-18T23:47:15.934Z,8.40
2022-11-18T23:49:44.903Z,8.40
2022-11-18T23:52:15.925Z,8.40
2022-11-18T23:54:44.967Z,8.30
2022-11-18T23:57:14.016Z,8.30
2022-11-18T23:59:43.001Z,8.30
